Time;durP1;ratioP1;P1;durP2;ratioP2;P2;SDS_P1;SDS_P2;PMS_P1;PMS_P2;Temp;Humidity;BMP_temperature;BMP_pressure;BME280_temperature;BME280_humidity;BME280_pressure;Samples;Min_cycle;Max_cycle;Signal;HPM_P1;HPM_P2
2022/05/18 00:00:51;;;;;;;14.10;9.40;;;;;;;12.30;86.32;96572.69;2066676;28;20061;-62
2022/05/18 00:01:52;;;;;;;15.05;10.38;;;;;;;12.29;85.58;96572.75;2058487;28;20157;-62
2022/05/18 00:03:04;;;;;;;13.95;9.65;;;;;;;12.27;85.86;96579.78;2051653;28;20051;-62
2022/05/18 00:04:06;;;;;;;15.52;10.63;;;;;;;12.24;85.84;96575.59;2060642;28;20583;-61
2022/05/18 00:05:07;;;;;;;13.82;9.50;;;;;;;12.21;86.09;96572.25;2058515;28;20043;-64
2022/05/18 00:06:08;;;;;;;15.18;10.13;;;;;;;12.20;86.42;96573.16;2050486;28;20047;-61
2022/05/18 00:07:10;;;;;;;16.40;10.55;;;;;;;12.17;86.48;96581.13;2059038;28;20058;-64
2022/05/18 00:08:12;;;;;;;15.57;10.10;;;;;;;12.14;86.38;96575.13;2051172;29;20063;-64
2022/05/18 00:09:13;;;;;;;14.02;9.85;;;;;;;12.13;86.38;96569.97;2051446;28;20445;-64
2022/05/18 00:10:14;;;;;;;13.27;10.25;;;;;;;12.12;85.86;96569.13;2067498;28;20058;-64
2022/05/18 00:11:17;;;;;;;15.38;10.10;;;;;;;12.10;85.78;96575.31;2066389;28;20058;-64
2022/05/18 00:12:18;;;;;;;14.85;10.55;;;;;;;12.10;85.72;96581.38;2058506;28;20047;-63
2022/05/18 00:13:19;;;;;;;15.30;10.55;;;;;;;12.08;86.91;96574.53;2042525;29;20051;-63
2022/05/18 00:14:21;;;;;;;15.50;9.68;;;;;;;12.08;86.88;96579.75;2051079;28;20046;-64
2022/05/18 00:15:23;;;;;;;16.80;10.88;;;;;;;12.07;86.60;96581.50;2051409;28;20043;-64
2022/05/18 00:16:26;;;;;;;12.73;9.85;;;;;;;12.09;86.55;96577.09;2043180;29;20066;-64
2022/05/18 00:17:27;;;;;;;15.18;10.02;;;;;;;12.08;86.28;96588.44;2051269;28;20058;-64
2022/05/18 00:18:28;;;;;;;16.33;10.60;;;;;;;12.08;86.87;96588.44;2058528;28;20054;-64
2022/05/18 00:19:31;;;;;;;15.52;9.68;;;;;;;12.10;86.70;96585.75;2067283;28;20034;-63
2022/05/18 00:20:32;;;;;;;19.50;10.15;;;;;;;12.09;86.53;96592.72;2058335;28;20047;-64
2022/05/18 00:21:33;;;;;;;13.45;9.80;;;;;;;12.09;86.50;96591.88;2050951;28;20058;-61
2022/05/18 00:22:45;;;;;;;16.63;10.25;;;;;;;12.05;86.99;96585.94;2059012;28;20424;-62
2022/05/18 00:23:46;;;;;;;14.35;9.45;;;;;;;12.02;87.16;96588.66;2052565;28;20529;-64
2022/05/18 00:24:47;;;;;;;14.30;10.52;;;;;;;12.02;86.34;96590.44;2042809;28;20051;-63
2022/05/18 00:25:49;;;;;;;17.50;10.85;;;;;;;11.97;86.90;96590.63;2051466;28;20055;-62
2022/05/18 00:26:50;;;;;;;15.32;10.27;;;;;;;11.96;87.10;96591.56;2050288;28;20059;-62
2022/05/18 00:27:51;;;;;;;21.65;10.88;;;;;;;11.96;87.58;96590.72;2053728;28;20043;-64
2022/05/18 00:28:53;;;;;;;17.42;10.15;;;;;;;11.97;87.05;96590.63;2060005;28;20058;-62
2022/05/18 00:29:54;;;;;;;15.95;10.40;;;;;;;11.95;87.39;96592.47;2051088;29;20047;-63
2022/05/18 00:30:56;;;;;;;13.95;11.05;;;;;;;11.94;87.86;96587.31;2050421;28;20050;-63
2022/05/18 00:31:58;;;;;;;21.73;11.32;;;;;;;11.90;88.43;96586.63;2059531;28;20063;-63
2022/05/18 00:33:03;;;;;;;17.52;11.90;;;;;;;11.89;88.06;96592.72;2058871;28;20051;-64
2022/05/18 00:34:04;;;;;;;15.95;11.07;;;;;;;11.80;88.38;96577.47;2059043;28;20047;-62
2022/05/18 00:35:06;;;;;;;16.52;11.57;;;;;;;11.85;87.89;96585.94;2058502;28;20047;-63
2022/05/18 00:36:07;;;;;;;18.55;11.52;;;;;;;11.83;87.84;96588.59;2059227;28;20500;-63
2022/05/18 00:37:09;;;;;;;15.07;11.38;;;;;;;11.84;87.51;96584.22;2042012;29;20552;-63
2022/05/18 00:38:10;;;;;;;15.77;10.82;;;;;;;11.81;88.02;96587.81;2050256;28;20047;-62
2022/05/18 00:39:11;;;;;;;16.90;11.32;;;;;;;11.79;87.65;96581.00;2065516;28;20046;-63
2022/05/18 00:40:13;;;;;;;14.10;11.25;;;;;;;11.79;87.90;96581.00;2050045;29;20054;-63
2022/05/18 00:41:19;;;;;;;15.95;10.63;;;;;;;11.78;87.75;96574.94;2050549;28;20058;-62
2022/05/18 00:42:21;;;;;;;17.50;11.13;;;;;;;11.77;87.94;96585.41;2065941;28;20053;-62
2022/05/18 00:43:42;;;;;;;15.38;10.82;;;;;;;11.77;88.44;96583.66;2058203;28;20046;-64
2022/05/18 00:44:43;;;;;;;16.92;11.40;;;;;;;11.77;87.90;96582.81;2053178;28;20047;-64
2022/05/18 00:45:45;;;;;;;16.30;11.85;;;;;;;11.78;87.65;96584.50;2049794;29;20043;-64
2022/05/18 00:46:46;;;;;;;13.80;10.80;;;;;;;11.75;87.79;96582.03;2050802;28;20059;-63
2022/05/18 00:47:47;;;;;;;14.75;10.10;;;;;;;11.74;87.90;96588.16;2058363;28;20050;-63
2022/05/18 00:48:48;;;;;;;16.95;10.15;;;;;;;11.68;87.79;96579.69;2042167;29;20063;-62
2022/05/18 00:49:53;;;;;;;15.30;10.57;;;;;;;11.70;88.29;96595.22;2042687;29;20056;-63
2022/05/18 00:50:54;;;;;;;12.25;9.45;;;;;;;11.61;87.98;96583.44;2042668;28;20610;-64
2022/05/18 00:51:56;;;;;;;15.80;9.77;;;;;;;11.65;88.09;96586.75;2058691;28;20523;-63
2022/05/18 00:53:00;;;;;;;20.42;11.48;;;;;;;11.64;88.46;96595.50;2066711;28;20053;-62
2022/05/18 00:54:08;;;;;;;16.02;10.00;;;;;;;11.62;87.84;96595.53;2050145;28;20058;-64
2022/05/18 00:55:10;;;;;;;21.80;10.43;;;;;;;11.60;87.73;96594.78;2051578;28;20055;-61
2022/05/18 00:56:14;;;;;;;13.82;10.05;;;;;;;11.61;88.48;96596.47;2066310;28;20054;-62
2022/05/18 00:57:18;;;;;;;15.18;10.10;;;;;;;11.53;88.18;96582.94;2059552;28;20113;-64
2022/05/18 00:58:22;;;;;;;15.90;9.65;;;;;;;11.57;88.13;96597.47;2050760;28;20437;-63
2022/05/18 00:59:26;;;;;;;15.18;10.07;;;;;;;11.57;88.45;96594.03;2051112;28;20528;-63
2022/05/18 01:00:27;;;;;;;17.48;10.73;;;;;;;11.58;88.58;96593.16;2058861;28;20039;-61
2022/05/18 01:01:29;;;;;;;15.20;9.73;;;;;;;11.57;88.71;96594.88;2050120;29;20051;-61
2022/05/18 01:02:32;;;;;;;15.38;10.52;;;;;;;11.57;88.06;96597.47;2042449;28;20494;-62
2022/05/18 01:03:39;;;;;;;15.20;9.77;;;;;;;11.55;88.26;96596.72;2050456;28;20075;-62
2022/05/18 01:04:40;;;;;;;17.27;10.27;;;;;;;11.57;88.47;96592.28;2059977;28;20050;-62
2022/05/18 01:05:43;;;;;;;13.50;9.82;;;;;;;11.54;88.90;96592.41;2050148;28;20047;-63
2022/05/18 01:07:06;;;;;;;13.98;10.82;;;;;;;11.50;88.60;96590.88;2043176;28;20054;-61
2022/05/18 01:08:07;;;;;;;15.75;10.13;;;;;;;11.51;89.37;96589.94;2063908;28;20533;-61
2022/05/18 01:09:14;;;;;;;16.17;10.48;;;;;;;11.52;88.62;96594.25;2066218;28;20184;-64
2022/05/18 01:10:15;;;;;;;15.45;10.38;;;;;;;11.48;89.43;96590.06;2043586;29;20055;-64
2022/05/18 01:11:17;;;;;;;17.23;10.45;;;;;;;11.47;89.29;96591.00;2042763;28;20051;-63
2022/05/18 01:12:19;;;;;;;15.13;10.02;;;;;;;11.43;89.16;96595.47;2049595;28;20523;-63
2022/05/18 01:13:20;;;;;;;15.98;10.48;;;;;;;11.40;88.61;96595.59;2057480;28;20053;-61
2022/05/18 01:14:30;;;;;;;17.35;9.80;;;;;;;11.40;88.79;96589.53;2058031;28;20050;-61
2022/05/18 01:15:32;;;;;;;17.48;10.38;;;;;;;11.39;89.15;96593.91;2066885;28;20046;-63
2022/05/18 01:16:33;;;;;;;12.98;9.68;;;;;;;11.39;88.76;96599.09;2065587;28;20046;-64
2022/05/18 01:17:36;;;;;;;16.13;10.65;;;;;;;11.37;88.25;96602.69;2042001;29;20028;-62
2022/05/18 01:18:38;;;;;;;15.93;9.73;;;;;;;11.35;88.53;96602.72;2050357;28;20064;-64
2022/05/18 01:19:45;;;;;;;15.63;10.80;;;;;;;11.25;89.21;96589.28;2065369;28;20059;-63
2022/05/18 01:20:46;;;;;;;15.80;9.98;;;;;;;11.30;88.37;96599.47;2050498;28;20043;-61
2022/05/18 01:21:56;;;;;;;15.95;10.20;;;;;;;11.29;88.88;96603.00;2049583;28;20058;-64
2022/05/18 01:23:17;;;;;;;;;;;;;;;11.26;88.48;96601.34;2060540;28;20050;-64
2022/05/18 01:24:24;;;;;;;16.17;10.23;;;;;;;11.23;89.14;96598.88;2050913;28;19915;-62
2022/05/18 01:25:25;;;;;;;12.90;9.88;;;;;;;11.25;89.32;96598.81;2047329;28;20632;-64
2022/05/18 01:26:47;;;;;;;16.75;10.95;;;;;;;11.22;89.67;96596.34;2065941;28;20042;-64
2022/05/18 01:27:48;;;;;;;17.38;10.95;;;;;;;11.20;89.37;96601.59;2065530;28;20069;-62
2022/05/18 01:28:52;;;;;;;18.48;11.55;;;;;;;11.18;89.30;96603.41;2042140;29;20055;-62
2022/05/18 01:29:53;;;;;;;17.45;10.90;;;;;;;11.16;88.97;96602.63;2035519;28;20048;-62
2022/05/18 01:30:54;;;;;;;18.73;12.15;;;;;;;11.13;88.75;96609.72;2041117;29;20391;-61
2022/05/18 01:31:58;;;;;;;18.77;12.10;;;;;;;11.10;89.02;96600.28;2057462;28;20054;-64
2022/05/18 01:33:00;;;;;;;16.05;11.27;;;;;;;11.11;89.50;96603.72;2050509;28;20051;-62
2022/05/18 01:34:01;;;;;;;25.17;13.13;;;;;;;11.11;89.25;96608.91;2049782;28;20050;-61
2022/05/18 01:35:02;;;;;;;15.90;11.23;;;;;;;11.09;89.13;96611.56;2050365;28;20047;-62
2022/05/18 01:36:04;;;;;;;13.95;10.98;;;;;;;11.08;88.90;96607.28;2042036;28;20433;-62
2022/05/18 01:37:05;;;;;;;16.40;11.98;;;;;;;11.07;89.16;96615.16;2049826;28;20085;-62
2022/05/18 01:38:07;;;;;;;17.92;12.52;;;;;;;11.04;89.72;96613.53;2049914;29;20051;-63
2022/05/18 01:39:11;;;;;;;15.07;11.05;;;;;;;11.00;89.59;96612.78;2042184;28;20047;-63
2022/05/18 01:40:18;;;;;;;15.60;10.95;;;;;;;11.00;89.82;96615.38;2042830;28;20414;-62
2022/05/18 01:41:20;;;;;;;17.83;10.75;;;;;;;10.98;89.93;96611.16;2044005;28;20441;-63
2022/05/18 01:42:27;;;;;;;15.95;11.57;;;;;;;10.97;89.29;96607.69;2058299;28;20053;-62
2022/05/18 01:43:32;;;;;;;17.77;11.57;;;;;;;10.98;89.83;96609.38;2057699;28;20050;-61
2022/05/18 01:44:35;;;;;;;17.27;12.68;;;;;;;10.96;89.53;96612.94;2052804;28;20063;-63
2022/05/18 01:45:36;;;;;;;15.70;10.65;;;;;;;10.93;89.44;96610.47;2055016;28;20054;-63
2022/05/18 01:46:37;;;;;;;19.27;12.38;;;;;;;10.92;89.54;96612.22;2054161;28;20054;-64
2022/05/18 01:47:39;;;;;;;17.90;11.68;;;;;;;10.91;89.47;96614.91;2059249;28;20046;-62
2022/05/18 01:48:42;;;;;;;17.70;12.07;;;;;;;10.88;89.63;96610.69;2058613;28;20046;-64
2022/05/18 01:49:44;;;;;;;14.13;10.43;;;;;;;10.85;90.03;96602.97;2058036;28;20074;-64
2022/05/18 01:50:45;;;;;;;15.48;11.20;;;;;;;10.87;90.14;96608.97;2050480;28;20067;-62
2022/05/18 01:51:48;;;;;;;15.18;10.27;;;;;;;10.84;89.81;96603.88;2042247;28;20043;-63
2022/05/18 01:52:50;;;;;;;23.08;11.63;;;;;;;10.84;89.76;96608.25;2058731;28;20057;-64
2022/05/18 01:53:51;;;;;;;15.75;11.20;;;;;;;10.81;89.91;96607.44;2041591;29;20051;-63
2022/05/18 01:54:52;;;;;;;17.88;12.43;;;;;;;10.80;89.65;96605.78;2034575;28;20052;-64
2022/05/18 01:55:54;;;;;;;17.45;12.50;;;;;;;10.79;89.03;96609.25;2057578;28;20046;-61
2022/05/18 01:56:57;;;;;;;17.40;12.00;;;;;;;10.78;89.72;96610.16;2057572;28;20109;-64
2022/05/18 01:57:59;;;;;;;15.50;10.85;;;;;;;10.78;89.66;96609.31;2058336;28;20047;-62
2022/05/18 01:59:00;;;;;;;20.00;12.02;;;;;;;10.77;89.41;96608.50;2050105;28;20051;-64
2022/05/18 02:00:04;;;;;;;15.07;11.63;;;;;;;10.76;89.72;96614.56;2058001;28;20663;-60
2022/05/18 02:01:13;;;;;;;16.15;11.20;;;;;;;10.75;89.67;96617.25;2071847;28;20045;-61
2022/05/18 02:02:14;;;;;;;18.45;12.13;;;;;;;10.73;89.80;96619.03;2065614;28;20046;-62
2022/05/18 02:03:16;;;;;;;16.33;11.80;;;;;;;10.71;90.29;96613.06;2049058;28;20035;-62
2022/05/18 02:04:17;;;;;;;16.05;11.15;;;;;;;10.71;89.99;96613.06;2057865;28;20420;-62
2022/05/18 02:05:18;;;;;;;16.42;11.70;;;;;;;10.71;89.97;96611.28;2050026;29;20429;-62
2022/05/18 02:06:19;;;;;;;17.75;12.93;;;;;;;10.70;89.57;96613.97;2050643;28;20533;-62
2022/05/18 02:07:20;;;;;;;20.67;12.65;;;;;;;10.67;89.79;96612.34;2057385;28;20069;-62
2022/05/18 02:08:22;;;;;;;21.77;13.07;;;;;;;10.65;89.53;96606.34;2058229;28;20043;-62
2022/05/18 02:09:23;;;;;;;19.45;12.57;;;;;;;10.64;89.97;96612.44;2057087;28;20046;-64
2022/05/18 02:10:24;;;;;;;18.30;13.02;;;;;;;10.65;90.22;96610.69;2050152;28;20043;-61
2022/05/18 02:11:26;;;;;;;18.25;12.02;;;;;;;10.64;90.17;96608.97;2057294;28;20057;-62
2022/05/18 02:12:27;;;;;;;16.33;11.77;;;;;;;10.64;90.18;96614.19;2049637;29;20039;-62
2022/05/18 02:13:28;;;;;;;19.30;13.15;;;;;;;10.62;90.49;96609.06;2034288;28;20040;-61
2022/05/18 02:14:29;;;;;;;18.40;13.13;;;;;;;10.62;90.06;96611.66;2050771;28;20034;-62
2022/05/18 02:15:31;;;;;;;22.45;14.13;;;;;;;10.61;89.97;96609.94;2049411;28;20047;-62
2022/05/18 02:16:32;;;;;;;19.38;12.70;;;;;;;10.60;89.95;96611.69;2034206;29;20048;-63
2022/05/18 02:17:35;;;;;;;22.50;13.65;;;;;;;10.59;90.05;96612.63;2049126;28;20051;-62
2022/05/18 02:18:36;;;;;;;19.10;13.20;;;;;;;10.57;90.56;96611.81;2057843;28;20070;-64
2022/05/18 02:19:37;;;;;;;16.05;12.18;;;;;;;10.57;90.27;96613.56;2049190;28;20043;-62
2022/05/18 02:20:42;;;;;;;19.50;12.55;;;;;;;10.56;90.63;96617.94;2071994;23;20058;31
2022/05/18 02:21:43;;;;;;;17.52;13.20;;;;;;;10.57;90.70;96623.97;2053187;28;20065;-61
2022/05/18 02:22:44;;;;;;;19.98;12.90;;;;;;;10.53;90.36;96615.44;2056461;28;20047;-60
2022/05/18 02:23:46;;;;;;;17.75;12.65;;;;;;;10.53;91.02;96617.19;2055647;28;20043;-60
2022/05/18 02:24:47;;;;;;;16.35;11.57;;;;;;;10.56;90.24;96623.13;2048443;29;20062;-59
2022/05/18 02:25:48;;;;;;;20.65;11.50;;;;;;;10.58;90.82;96631.72;2048951;28;20047;-59
2022/05/18 02:26:49;;;;;;;17.00;13.13;;;;;;;10.60;90.70;96627.28;2040726;29;20410;-58
2022/05/18 02:27:51;;;;;;;18.30;12.85;;;;;;;10.60;90.50;96624.69;2046564;28;20082;-59
2022/05/18 02:28:52;;;;;;;21.35;13.77;;;;;;;10.56;90.42;96622.28;2048247;29;20050;-60
2022/05/18 02:29:53;;;;;;;20.15;13.50;;;;;;;10.56;90.65;96624.88;2033025;29;20055;-61
2022/05/18 02:30:54;;;;;;;18.25;13.00;;;;;;;10.53;90.75;96631.03;2049461;29;20047;-59
2022/05/18 02:31:55;;;;;;;16.70;12.10;;;;;;;10.52;90.69;96631.06;2040007;29;20048;-60
2022/05/18 02:32:56;;;;;;;16.35;11.32;;;;;;;10.50;90.15;96631.13;2041287;29;20048;-60
2022/05/18 02:33:57;;;;;;;14.95;11.88;;;;;;;10.49;90.33;96629.44;2048161;29;20540;-61
2022/05/18 02:34:59;;;;;;;17.27;12.00;;;;;;;10.49;90.65;96633.78;2040666;29;20055;-60
2022/05/18 02:36:00;;;;;;;21.02;13.02;;;;;;;10.50;90.15;96630.28;2040658;29;20055;-59
2022/05/18 02:37:01;;;;;;;19.77;12.75;;;;;;;10.49;90.06;96626.00;2056412;28;20058;-60
2022/05/18 02:38:02;;;;;;;19.63;12.52;;;;;;;10.49;90.48;96628.59;2048574;28;20362;-60
2022/05/18 02:39:03;;;;;;;16.38;11.50;;;;;;;10.47;90.46;96623.44;2040715;29;20044;-60
2022/05/18 02:40:09;;;;;;;16.50;11.73;;;;;;;10.47;90.25;96625.19;2040375;29;20438;-60
2022/05/18 02:41:11;;;;;;;21.50;12.13;;;;;;;10.46;90.14;96623.53;2040373;29;20203;-60
2022/05/18 02:42:12;;;;;;;16.90;11.55;;;;;;;10.44;90.10;96625.31;2040110;29;20403;-60
2022/05/18 02:43:13;;;;;;;16.58;12.60;;;;;;;10.42;90.36;96625.38;2047765;29;20535;-60
2022/05/18 02:44:16;;;;;;;19.27;12.25;;;;;;;10.41;nan;96628.03;2048021;29;20426;-59
2022/05/18 02:45:17;;;;;;;18.40;12.23;;;;;;;10.40;90.25;96621.13;2056161;28;20061;-61
2022/05/18 02:46:19;;;;;;;18.95;12.38;;;;;;;10.41;90.66;96622.84;2048447;29;20521;-60
2022/05/18 02:47:21;;;;;;;16.65;11.50;;;;;;;10.40;90.23;96623.72;2033031;29;20388;-59
2022/05/18 02:48:22;;;;;;;18.20;12.45;;;;;;;10.39;90.46;96630.66;2040501;29;20044;-60
2022/05/18 02:49:24;;;;;;;17.95;11.85;;;;;;;10.42;90.46;96627.97;2048388;29;20120;-59
2022/05/18 02:50:26;;;;;;;17.70;12.05;;;;;;;10.42;90.37;96629.72;2055841;28;20046;-59
2022/05/18 02:51:27;;;;;;;20.02;13.38;;;;;;;10.42;91.01;96629.72;2048219;29;20043;-58
2022/05/18 02:52:28;;;;;;;18.23;13.25;;;;;;;10.40;91.05;96623.72;2039966;29;20058;-59
2022/05/18 02:53:30;;;;;;;23.75;13.77;;;;;;;10.37;90.75;96635.94;2039853;29;20054;-60
2022/05/18 02:57:09;;;;;;;19.33;13.55;;;;;;;10.32;90.91;96631.81;2050050;28;20051;-60
2022/05/18 02:58:10;;;;;;;22.35;13.63;;;;;;;10.30;90.72;96631.84;2040803;29;20047;-60
2022/05/18 02:59:11;;;;;;;21.63;14.88;;;;;;;10.30;91.16;96631.84;2040358;28;20530;-59
2022/05/18 03:00:14;;;;;;;15.30;11.60;;;;;;;10.29;91.29;96635.38;2055788;28;20046;-60
2022/05/18 03:01:18;;;;;;;17.83;12.40;;;;;;;10.29;91.33;96637.97;2056040;28;20417;-59
2022/05/18 03:02:19;;;;;;;16.38;12.32;;;;;;;10.30;91.07;96637.06;2048015;28;20392;-60
2022/05/18 03:03:20;;;;;;;18.05;12.57;;;;;;;10.30;90.80;96639.66;2040409;29;20055;-59
2022/05/18 03:04:21;;;;;;;20.70;13.90;;;;;;;10.30;90.92;96637.06;2048440;28;20047;-59
2022/05/18 03:05:22;;;;;;;19.88;12.77;;;;;;;10.29;91.19;96637.97;2048648;28;20406;-60
2022/05/18 03:06:24;;;;;;;16.85;12.00;;;;;;;10.31;90.53;96643.94;2056150;28;20051;-60
2022/05/18 03:07:25;;;;;;;19.92;12.63;;;;;;;10.31;90.96;96636.13;2055798;28;20053;-60
2022/05/18 03:08:26;;;;;;;16.30;11.48;;;;;;;10.30;90.39;96637.06;2056228;28;20046;-60
2022/05/18 03:09:28;;;;;;;15.60;11.75;;;;;;;10.33;90.43;96636.09;2055777;28;20047;-59
2022/05/18 03:10:29;;;;;;;14.63;11.65;;;;;;;10.32;90.46;96639.59;2040814;29;20051;-60
2022/05/18 03:11:30;;;;;;;18.42;11.82;;;;;;;10.32;91.07;96637.84;2048080;28;20054;-60
2022/05/18 03:12:31;;;;;;;18.50;11.63;;;;;;;10.32;90.27;96631.81;2040596;29;20044;-59
2022/05/18 03:13:33;;;;;;;20.23;12.45;;;;;;;10.31;91.05;96637.91;2032393;29;20502;-60
2022/05/18 03:14:34;;;;;;;18.92;12.90;;;;;;;10.28;90.86;96644.03;2041073;28;20050;-59
2022/05/18 03:15:35;;;;;;;15.48;11.32;;;;;;;10.29;90.57;96637.09;2055923;28;20054;-60
2022/05/18 03:16:36;;;;;;;14.70;11.02;;;;;;;10.30;91.26;96637.06;2056338;28;20588;-60
2022/05/18 03:17:38;;;;;;;20.00;12.48;;;;;;;10.29;90.96;96642.28;2040803;28;20405;-59
2022/05/18 03:18:39;;;;;;;17.80;13.02;;;;;;;10.28;90.61;96636.25;2040375;29;20054;-60
2022/05/18 03:19:40;;;;;;;22.17;13.98;;;;;;;10.27;90.82;96642.34;2048471;28;20472;-59
2022/05/18 03:24:36;;;;;;;18.77;12.43;;;;;;;10.23;90.75;96645.06;2050736;28;20466;-60
2022/05/18 03:25:37;;;;;;;18.20;12.40;;;;;;;10.23;90.94;96647.66;2040068;29;20356;-59
2022/05/18 03:26:38;;;;;;;18.67;12.98;;;;;;;10.22;91.23;96648.59;2048639;28;20051;-59
2022/05/18 03:27:43;;;;;;;16.00;11.55;;;;;;;10.23;90.61;96647.66;2061062;28;20409;-60
2022/05/18 03:28:45;;;;;;;16.23;11.55;;;;;;;10.22;90.86;96649.44;2055691;28;20050;-59
2022/05/18 03:29:46;;;;;;;16.00;11.95;;;;;;;10.21;90.66;96658.13;2047674;29;20051;-59
2022/05/18 03:30:47;;;;;;;19.20;12.70;;;;;;;10.20;90.78;96653.81;2040767;29;20067;-59
2022/05/18 03:31:48;;;;;;;17.95;12.07;;;;;;;10.18;91.00;96662.56;2032473;29;20507;-59
2022/05/18 03:32:50;;;;;;;17.25;12.15;;;;;;;10.16;90.69;96670.41;2032154;29;20434;-60
2022/05/18 03:33:51;;;;;;;16.65;12.20;;;;;;;10.14;90.46;96664.41;2032234;29;20580;-59
2022/05/18 03:34:52;;;;;;;16.58;12.55;;;;;;;10.12;90.60;96664.47;2048471;28;20062;-59
2022/05/18 03:35:53;;;;;;;18.23;11.95;;;;;;;10.11;90.76;96660.19;2040646;29;20059;-58
2022/05/18 03:36:54;;;;;;;16.60;12.07;;;;;;;10.10;91.09;96671.47;2040768;29;20058;-59
2022/05/18 03:37:56;;;;;;;20.17;12.75;;;;;;;10.08;91.08;96665.47;2047871;28;20066;-60
2022/05/18 03:38:57;;;;;;;16.90;12.98;;;;;;;10.08;90.96;96668.09;2032265;29;20056;-59
2022/05/18 03:39:58;;;;;;;16.95;12.13;;;;;;;10.10;90.79;96673.19;2039293;29;20040;-61
2022/05/18 03:40:59;;;;;;;19.23;13.10;;;;;;;10.08;91.04;96673.28;2048547;28;20074;-58
2022/05/18 03:42:01;;;;;;;17.05;12.45;;;;;;;10.07;90.94;96673.31;2048146;29;20451;-59
2022/05/18 03:43:03;;;;;;;19.27;12.82;;;;;;;10.06;90.92;96669.03;2040498;29;20050;-61
2022/05/18 03:44:04;;;;;;;19.02;12.43;;;;;;;10.08;91.23;96669.84;2047413;29;20070;-60
2022/05/18 03:45:06;;;;;;;21.35;13.52;;;;;;;10.09;90.67;96671.50;2055849;28;20054;-59
2022/05/18 03:46:07;;;;;;;21.08;13.43;;;;;;;10.09;90.86;96672.34;2048051;29;20058;-60
2022/05/18 03:47:09;;;;;;;18.60;12.93;;;;;;;10.09;90.62;96667.16;2039888;29;20403;-61
2022/05/18 03:48:11;;;;;;;17.85;12.05;;;;;;;10.11;90.73;96669.72;2063268;28;20055;-60
2022/05/18 03:49:12;;;;;;;19.00;11.65;;;;;;;10.12;90.61;96666.22;2055502;28;20047;-59
2022/05/18 03:50:14;;;;;;;20.45;11.98;;;;;;;10.15;90.66;96666.09;2048222;29;20048;-59
2022/05/18 03:51:16;;;;;;;16.40;11.80;;;;;;;10.15;90.78;96659.16;2048040;29;20055;-60
2022/05/18 03:52:17;;;;;;;20.25;12.55;;;;;;;10.18;90.48;96662.56;2040137;29;20058;-59
2022/05/18 03:53:18;;;;;;;17.38;13.10;;;;;;;10.17;90.78;96651.34;2055822;28;20053;-60
2022/05/18 03:54:19;;;;;;;18.85;12.52;;;;;;;10.20;90.54;96659.00;2047964;28;20047;-60
2022/05/18 03:55:21;;;;;;;16.05;12.00;;;;;;;10.23;90.53;96653.72;2048085;28;20054;-60
2022/05/18 03:56:24;;;;;;;14.40;11.60;;;;;;;10.26;90.87;96656.19;2047901;29;20147;-60
2022/05/18 03:57:25;;;;;;;15.75;11.32;;;;;;;10.29;90.21;96660.44;2040391;28;20051;-60
2022/05/18 03:58:26;;;;;;;19.00;12.05;;;;;;;10.30;90.84;96662.16;2056328;28;20053;-61
2022/05/18 03:59:28;;;;;;;18.17;12.63;;;;;;;10.33;90.98;96659.47;2055528;28;20046;-59
2022/05/18 04:00:30;;;;;;;18.83;11.60;;;;;;;10.33;90.43;96660.31;2041375;29;20048;-58
2022/05/18 04:01:31;;;;;;;20.70;11.75;;;;;;;10.36;90.26;96656.75;2040475;29;20051;-59
2022/05/18 04:02:33;;;;;;;19.95;11.80;;;;;;;10.37;90.69;96661.91;2047642;29;20059;-58
2022/05/18 04:03:36;;;;;;;16.45;12.32;;;;;;;10.40;90.75;96660.06;2047601;29;20469;-61
2022/05/18 04:04:37;;;;;;;19.73;11.30;;;;;;;10.42;90.40;96661.72;2048221;29;20054;-60
2022/05/18 04:05:40;;;;;;;20.55;12.57;;;;;;;10.45;90.50;96671.16;2040284;29;20040;-59
2022/05/18 04:06:41;;;;;;;16.77;12.35;;;;;;;10.49;90.49;96664.94;2048228;29;20281;-60
2022/05/18 04:07:42;;;;;;;18.55;12.70;;;;;;;10.50;90.63;96669.22;2047951;28;20047;-59
2022/05/18 04:08:44;;;;;;;17.25;11.77;;;;;;;10.53;90.85;96664.78;2047755;29;20055;-59
2022/05/18 04:09:47;;;;;;;15.38;11.25;;;;;;;10.56;91.06;96663.84;2047876;29;20055;-61
2022/05/18 04:10:48;;;;;;;18.92;12.27;;;;;;;10.61;90.83;96674.88;2048116;29;20059;-57
2022/05/18 04:11:49;;;;;;;17.55;11.82;;;;;;;10.65;89.99;96670.44;2056120;28;20046;-60
2022/05/18 04:12:50;;;;;;;19.17;11.13;;;;;;;10.66;90.52;96669.53;2063664;28;20050;-59
2022/05/18 04:13:52;;;;;;;18.30;11.45;;;;;;;10.69;90.56;96674.59;2047674;29;20047;-58
2022/05/18 04:14:54;;;;;;;16.05;11.55;;;;;;;10.73;90.25;96679.63;2040325;29;20077;-59
2022/05/18 04:15:55;;;;;;;18.98;11.63;;;;;;;10.77;90.37;96676.03;2040271;29;20052;-59
2022/05/18 04:16:57;;;;;;;14.77;11.15;;;;;;;10.80;89.84;96677.69;2040074;29;20052;-59
2022/05/18 04:17:59;;;;;;;16.77;11.77;;;;;;;10.84;90.33;96683.59;2047516;29;20047;-59
2022/05/18 04:19:00;;;;;;;15.95;11.40;;;;;;;10.86;90.05;96679.19;2055369;28;20054;-60
2022/05/18 04:20:03;;;;;;;17.85;10.52;;;;;;;10.90;89.86;96689.38;2048434;28;20058;-58
2022/05/18 04:21:06;;;;;;;17.77;10.75;;;;;;;10.91;90.03;96687.66;2047852;29;20124;-59
2022/05/18 04:22:07;;;;;;;16.52;10.50;;;;;;;10.92;90.14;96687.59;2047363;29;20676;-60
2022/05/18 04:23:09;;;;;;;14.13;10.35;;;;;;;10.95;89.40;96689.22;2040590;29;20468;-60
2022/05/18 04:24:10;;;;;;;14.60;11.15;;;;;;;10.97;89.64;96684.81;2047593;28;20090;-59
2022/05/18 04:25:15;;;;;;;16.55;10.15;;;;;;;11.00;89.34;96680.34;2048285;29;20046;-60
2022/05/18 04:26:16;;;;;;;16.98;10.98;;;;;;;11.05;89.69;96690.56;2048070;28;20047;-59
2022/05/18 04:27:17;;;;;;;17.83;10.60;;;;;;;11.08;89.71;96684.41;2063151;28;20538;-59
2022/05/18 04:28:19;;;;;;;13.88;10.52;;;;;;;11.09;89.88;96689.53;2055203;28;20529;-59
2022/05/18 04:30:00;;;;;;;15.63;10.52;;;;;;;11.12;89.30;96683.38;2055659;28;20050;-61
2022/05/18 04:31:01;;;;;;;14.90;10.80;;;;;;;11.16;89.19;96685.81;2043631;28;20059;-59
2022/05/18 04:32:03;;;;;;;16.83;10.50;;;;;;;11.19;88.98;96684.84;2048307;28;20047;-60
2022/05/18 04:33:04;;;;;;;14.15;10.77;;;;;;;11.23;89.76;96692.47;2047325;29;20058;-60
2022/05/18 04:34:06;;;;;;;15.43;11.45;;;;;;;11.27;89.41;96694.03;2047064;28;20051;-59
2022/05/18 04:35:08;;;;;;;14.00;10.30;;;;;;;11.30;89.07;96693.06;2047739;29;20051;-59
2022/05/18 04:36:09;;;;;;;17.00;11.60;;;;;;;11.33;89.52;96697.31;2047901;28;20058;-59
2022/05/18 04:37:11;;;;;;;14.95;10.45;;;;;;;11.38;89.29;96705.78;2063597;28;20472;-60
2022/05/18 04:38:12;;;;;;;13.05;10.32;;;;;;;11.42;88.84;96705.59;2055875;28;20525;-60
2022/05/18 04:39:13;;;;;;;17.20;11.07;;;;;;;11.46;89.24;96701.97;2056045;28;20042;-58
2022/05/18 04:40:15;;;;;;;18.80;11.02;;;;;;;11.49;88.52;96701.00;2041192;28;20410;-60
2022/05/18 04:41:16;;;;;;;14.15;11.20;;;;;;;11.54;88.94;96700.81;2042666;28;20044;-59
2022/05/18 04:42:22;;;;;;;17.88;11.20;;;;;;;11.57;88.64;96704.13;2049649;28;20074;-58
2022/05/18 04:43:24;;;;;;;21.45;11.65;;;;;;;11.59;88.13;96702.31;2056605;28;20129;-58
2022/05/18 04:44:25;;;;;;;15.68;10.73;;;;;;;11.60;88.01;96705.78;2056585;28;20586;-59
2022/05/18 04:45:26;;;;;;;18.50;11.75;;;;;;;11.57;87.42;96698.94;2057160;28;20042;-61
2022/05/18 04:46:27;;;;;;;16.65;11.30;;;;;;;11.60;87.08;96701.44;2049792;28;20130;-60
2022/05/18 04:47:29;;;;;;;15.45;10.68;;;;;;;11.65;86.20;96706.44;2033954;29;20514;-61
2022/05/18 04:48:31;;;;;;;15.82;11.23;;;;;;;11.69;86.40;96714.06;2049232;29;20486;-59
2022/05/18 04:49:33;;;;;;;16.05;11.15;;;;;;;11.68;86.34;96709.78;2049936;28;20047;-59
2022/05/18 04:50:34;;;;;;;15.98;11.32;;;;;;;11.70;85.64;96712.31;2057066;28;20422;-59
2022/05/18 04:51:35;;;;;;;15.98;11.45;;;;;;;11.73;85.19;96712.16;2049077;28;20043;-59
2022/05/18 04:52:37;;;;;;;16.20;11.55;;;;;;;11.81;85.33;96714.47;2040975;29;20391;-59
2022/05/18 04:53:38;;;;;;;16.90;12.18;;;;;;;11.83;85.04;96712.66;2049323;28;20047;-59
2022/05/18 04:54:39;;;;;;;17.70;11.77;;;;;;;11.85;84.95;96714.28;2049176;29;20449;-60